Time;durP1;ratioP1;P1;durP2;ratioP2;P2;SDS_P1;SDS_P2;PMS_P1;PMS_P2;Temp;Humidity;BMP_temperature;BMP_pressure;BME280_temperature;BME280_humidity;BME280_pressure;Samples;Min_cycle;Max_cycle;Signal;HPM_P1;HPM_P2
2021/08/30 00:01:20;;;;;;;8.58;7.78;;;;;;;24.42;65.56;98969.05;1730797;81;21527;-64
2021/08/30 00:03:48;;;;;;;9.98;8.18;;;;;;;24.42;65.59;98972.56;1732765;82;21101;-64
2021/08/30 00:06:14;;;;;;;12.30;8.95;;;;;;;24.41;65.42;98988.57;1732446;81;21096;-64
2021/08/30 00:08:43;;;;;;;12.03;8.68;;;;;;;24.44;65.57;99004.87;1729846;80;21074;-64
2021/08/30 00:11:09;;;;;;;9.18;8.28;;;;;;;24.44;65.72;98998.08;1716855;82;21191;-65
2021/08/30 00:13:37;;;;;;;8.95;8.05;;;;;;;24.44;65.72;98987.22;1743031;81;21055;-64
2021/08/30 00:16:04;;;;;;;9.98;8.35;;;;;;;24.43;65.72;98993.17;1718137;80;21033;-65
2021/08/30 00:18:31;;;;;;;9.10;8.00;;;;;;;24.42;65.87;98990.21;1728624;82;21122;-63
2021/08/30 00:21:00;;;;;;;9.90;8.45;;;;;;;24.42;65.92;98983.42;1743152;82;21253;-66
2021/08/30 00:23:27;;;;;;;9.65;8.80;;;;;;;24.42;65.97;98985.33;1742459;81;21066;-64
2021/08/30 00:25:54;;;;;;;9.03;8.18;;;;;;;24.41;66.05;98978.27;1740947;82;21090;-64
2021/08/30 00:28:21;;;;;;;9.35;8.43;;;;;;;24.40;66.05;98982.89;1736667;80;21073;-63
2021/08/30 00:30:49;;;;;;;9.25;8.28;;;;;;;24.39;65.98;98979.89;1730941;81;21067;-64
2021/08/30 00:33:15;;;;;;;9.98;9.03;;;;;;;24.40;65.89;98982.09;1721755;82;21010;-63
2021/08/30 00:35:42;;;;;;;9.98;9.03;;;;;;;24.40;65.88;98981.53;1740358;80;21039;-64
2021/08/30 00:38:08;;;;;;;9.25;8.33;;;;;;;24.41;66.25;98987.21;1719018;82;21026;-64
2021/08/30 00:40:39;;;;;;;8.88;8.08;;;;;;;24.42;66.31;98990.77;1734204;80;21611;-62
2021/08/30 00:43:07;;;;;;;9.75;8.50;;;;;;;24.41;66.41;98985.86;1718987;82;21822;-62
2021/08/30 00:45:34;;;;;;;9.15;7.87;;;;;;;24.42;66.34;98983.42;1736094;81;21066;-63
2021/08/30 00:48:01;;;;;;;8.28;7.22;;;;;;;24.43;66.22;98984.23;1736246;81;21102;-62
2021/08/30 00:50:28;;;;;;;9.38;8.53;;;;;;;24.42;66.08;98980.71;1731101;82;21078;-63
2021/08/30 00:52:56;;;;;;;8.78;7.97;;;;;;;24.44;66.01;98985.87;1720588;82;21069;-63
2021/08/30 00:55:22;;;;;;;10.10;8.28;;;;;;;24.43;65.93;98982.88;1726133;82;21506;-63
2021/08/30 00:57:50;;;;;;;8.93;8.13;;;;;;;24.43;65.95;98978.80;1717084;80;21542;-63
2021/08/30 01:00:17;;;;;;;9.20;8.40;;;;;;;24.43;65.96;98986.39;1714492;81;21105;-64
2021/08/30 01:02:44;;;;;;;8.45;7.62;;;;;;;24.44;65.92;98987.22;1716962;82;21071;-64
2021/08/30 01:05:12;;;;;;;10.00;7.83;;;;;;;24.44;65.88;98994.81;1722615;82;21054;-64
2021/08/30 01:08:00;;;;;;;7.22;6.62;;;;;;;24.44;65.91;98995.37;1733781;80;21542;-64
2021/08/30 01:10:45;;;;;;;8.78;7.33;;;;;;;24.45;65.89;98994.26;1736913;81;21518;-63
2021/08/30 01:13:23;;;;;;;8.38;7.58;;;;;;;24.53;65.53;98984.20;1737692;80;21076;-63
2021/08/30 01:15:49;;;;;;;7.95;7.15;;;;;;;24.55;65.45;98993.44;1736467;80;21022;-62
2021/08/30 01:18:19;;;;;;;11.60;8.45;;;;;;;24.53;65.50;98986.92;1733601;80;21553;-62
2021/08/30 01:21:22;;;;;;;10.30;7.55;;;;;;;24.52;65.52;98988.83;1735382;81;21098;-63
2021/08/30 01:23:58;;;;;;;8.43;7.30;;;;;;;24.52;65.54;98986.67;1738541;80;21084;-66
2021/08/30 01:26:25;;;;;;;8.58;7.45;;;;;;;24.50;65.56;98985.55;1748002;80;21073;-64
2021/08/30 01:29:16;;;;;;;9.73;8.18;;;;;;;24.49;65.60;98984.47;1726576;81;21501;-64
2021/08/30 01:31:55;;;;;;;9.00;8.08;;;;;;;24.48;65.54;98983.66;1731142;81;21065;-63
2021/08/30 01:34:22;;;;;;;8.40;7.53;;;;;;;24.47;65.52;98983.41;1752442;81;21101;-63
2021/08/30 01:36:50;;;;;;;9.95;7.55;;;;;;;24.45;65.52;98980.69;1749510;81;21097;-63
2021/08/30 01:39:17;;;;;;;8.48;7.60;;;;;;;24.45;65.50;98976.06;1751043;81;21073;-62
2021/08/30 01:41:43;;;;;;;8.90;6.70;;;;;;;24.45;65.51;98977.97;1751545;80;21037;-63
2021/08/30 01:44:10;;;;;;;8.48;7.50;;;;;;;24.44;65.48;98979.08;1752921;81;21645;-63
2021/08/30 01:46:38;;;;;;;7.85;7.08;;;;;;;24.44;65.44;98989.39;1732100;81;21623;-64
2021/08/30 01:49:06;;;;;;;8.80;7.97;;;;;;;24.44;65.47;98995.37;1745895;80;21049;-63
2021/08/30 01:51:32;;;;;;;7.65;6.95;;;;;;;24.43;65.49;98991.81;1742914;81;21124;-63
2021/08/30 01:53:59;;;;;;;7.83;7.03;;;;;;;24.43;65.49;98999.16;1745352;80;21017;-62
2021/08/30 01:56:27;;;;;;;9.23;6.60;;;;;;;24.42;65.46;99005.14;1750163;81;21022;-63
2021/08/30 02:01:41;;;;;;;8.20;7.22;;;;;;;24.41;65.39;98999.98;1747700;81;20998;-63
2021/08/30 02:04:07;;;;;;;8.55;7.15;;;;;;;24.40;65.43;99012.75;1745890;80;21541;-64
2021/08/30 02:06:34;;;;;;;8.48;7.47;;;;;;;24.40;65.38;99024.16;1746929;80;21106;-65
2021/08/30 02:09:04;;;;;;;7.58;6.75;;;;;;;24.39;65.39;99003.52;1747494;80;21069;-65
2021/08/30 02:11:35;;;;;;;7.15;6.45;;;;;;;24.39;65.26;98985.32;1753295;80;21125;-64
2021/08/30 02:14:04;;;;;;;8.15;7.15;;;;;;;24.39;65.18;98997.54;1745356;80;21092;-65
2021/08/30 02:16:30;;;;;;;7.45;6.72;;;;;;;24.39;65.13;99020.61;1745009;80;21085;-63
2021/08/30 02:19:14;;;;;;;7.55;6.85;;;;;;;24.39;65.15;99039.61;1743789;80;21061;-63
2021/08/30 02:21:43;;;;;;;7.80;6.83;;;;;;;24.39;65.20;99046.95;1732137;81;21025;-63
2021/08/30 02:24:45;;;;;;;8.05;7.08;;;;;;;24.39;65.24;99039.61;1730482;81;21813;-63
2021/08/30 02:27:49;;;;;;;8.53;7.60;;;;;;;24.38;65.29;99045.31;1727012;81;21497;-63
2021/08/30 02:30:22;;;;;;;7.90;6.33;;;;;;;24.36;65.15;99068.69;1750536;81;21057;-63
2021/08/30 02:32:51;;;;;;;8.35;7.55;;;;;;;24.35;65.17;99053.47;1753606;81;21030;-63
2021/08/30 02:35:24;;;;;;;11.15;7.22;;;;;;;24.34;65.35;99053.22;1734476;80;21561;-63
2021/08/30 02:37:52;;;;;;;7.85;7.03;;;;;;;24.33;65.40;99056.45;1744308;81;21195;-64
2021/08/30 02:40:21;;;;;;;7.45;6.35;;;;;;;24.34;65.34;99053.22;1750683;81;21545;-64
2021/08/30 02:42:48;;;;;;;9.13;6.97;;;;;;;24.33;65.35;99042.88;1751666;81;21068;-64
2021/08/30 02:45:14;;;;;;;9.63;7.80;;;;;;;24.33;65.34;99033.94;1737183;81;21525;-64
2021/08/30 02:47:41;;;;;;;7.83;7.03;;;;;;;24.32;65.30;99045.34;1736647;80;21053;-63
2021/08/30 02:50:10;;;;;;;8.00;7.15;;;;;;;24.34;65.28;99042.36;1743739;81;20994;-63
2021/08/30 02:52:38;;;;;;;7.95;7.15;;;;;;;24.34;65.22;99039.65;1736504;81;21016;-64
2021/08/30 02:55:06;;;;;;;10.55;7.22;;;;;;;24.33;65.18;99036.65;1745104;81;21038;-63
2021/08/30 02:57:33;;;;;;;8.13;7.33;;;;;;;24.34;65.16;99036.94;1753595;80;21589;-62
2021/08/30 03:00:00;;;;;;;8.65;7.30;;;;;;;24.33;65.16;99041.53;1746198;80;21115;-67
2021/08/30 03:02:26;;;;;;;10.78;7.42;;;;;;;24.34;65.08;99051.86;1737864;81;21137;-66
2021/08/30 03:04:55;;;;;;;7.25;6.58;;;;;;;24.33;65.09;99051.58;1733561;81;21544;-67
2021/08/30 03:07:21;;;;;;;8.15;7.35;;;;;;;24.33;65.02;99044.23;1739429;80;21062;-67
2021/08/30 03:09:50;;;;;;;8.63;7.40;;;;;;;24.34;64.98;99036.94;1744346;81;22078;-67
2021/08/30 03:12:16;;;;;;;8.35;7.55;;;;;;;24.33;64.96;99036.09;1710302;81;21052;-66
2021/08/30 03:14:43;;;;;;;9.50;7.08;;;;;;;24.34;64.87;99039.65;1735619;81;21137;-67
2021/08/30 03:17:11;;;;;;;9.15;8.25;;;;;;;24.33;64.85;99036.65;1742133;80;21025;-67
2021/08/30 03:19:43;;;;;;;8.70;7.85;;;;;;;24.34;64.80;99042.36;1748596;81;21014;-66
2021/08/30 03:22:12;;;;;;;7.75;6.95;;;;;;;24.34;64.75;99046.44;1738293;80;21044;-67
2021/08/30 03:24:43;;;;;;;8.23;7.37;;;;;;;24.32;64.75;99042.63;1739978;80;21029;-67
2021/08/30 03:27:09;;;;;;;9.80;8.20;;;;;;;24.33;64.73;99040.17;1745185;81;21144;-68
2021/08/30 03:29:40;;;;;;;8.75;7.95;;;;;;;24.33;64.71;99039.36;1715137;81;22136;-69
2021/08/30 03:32:08;;;;;;;7.35;6.75;;;;;;;24.32;64.64;99043.19;1754411;80;21517;-68
2021/08/30 03:34:36;;;;;;;9.23;8.18;;;;;;;24.32;64.56;99037.20;1736205;81;21088;-67
2021/08/30 03:37:03;;;;;;;8.38;7.47;;;;;;;24.31;64.52;99038.28;1750407;81;21623;-69
2021/08/30 03:39:29;;;;;;;7.70;6.97;;;;;;;24.31;64.45;99038.83;1741469;81;21144;-67
2021/08/30 03:41:57;;;;;;;8.95;7.05;;;;;;;24.31;64.42;99030.69;1750591;80;21030;-69
2021/08/30 03:44:24;;;;;;;8.68;7.78;;;;;;;24.31;64.38;99030.69;1739562;81;21108;-69
2021/08/30 03:46:51;;;;;;;8.28;7.53;;;;;;;24.30;64.34;99038.02;1729655;81;21529;-69
2021/08/30 03:49:19;;;;;;;8.75;7.80;;;;;;;24.31;64.29;99038.83;1742791;81;21572;-67
2021/08/30 03:51:46;;;;;;;10.50;8.20;;;;;;;24.30;64.28;99025.00;1728232;81;21147;-68
2021/08/30 03:54:12;;;;;;;8.78;7.90;;;;;;;24.29;64.26;99030.16;1748836;81;21092;-68
2021/08/30 03:56:39;;;;;;;7.65;6.95;;;;;;;24.28;64.33;99024.44;1748638;81;21096;-67
2021/08/30 03:59:05;;;;;;;8.20;7.45;;;;;;;24.27;64.30;99024.19;1745436;80;21030;-68
2021/08/30 04:01:33;;;;;;;7.87;7.17;;;;;;;24.27;64.30;99033.14;1755102;81;21081;-68
2021/08/30 04:04:01;;;;;;;11.18;7.40;;;;;;;24.26;64.28;99030.17;1748155;81;21101;-68
2021/08/30 04:06:30;;;;;;;9.83;7.92;;;;;;;24.27;64.27;99027.70;1752215;81;21045;-68
2021/08/30 04:08:58;;;;;;;7.50;6.80;;;;;;;24.27;64.26;99019.56;1694906;81;21049;-67
2021/08/30 04:11:27;;;;;;;8.53;7.47;;;;;;;24.27;64.23;99018.20;1739418;81;21554;-69
2021/08/30 04:13:53;;;;;;;9.45;7.25;;;;;;;24.26;64.27;99017.95;1750210;81;21025;-66
2021/08/30 04:16:21;;;;;;;10.82;9.43;;;;;;;24.27;64.27;99018.76;1714395;81;21098;-68
2021/08/30 04:18:48;;;;;;;8.53;7.55;;;;;;;24.25;64.29;99020.39;1733660;80;21719;-68
2021/08/30 04:21:15;;;;;;;9.20;8.00;;;;;;;24.24;64.40;99017.42;1730195;81;21057;-67
2021/08/30 04:23:41;;;;;;;9.75;7.30;;;;;;;24.24;64.85;99017.94;1748763;80;21494;-68
2021/08/30 04:26:08;;;;;;;10.75;7.78;;;;;;;24.25;65.23;99016.87;1747200;80;21002;-68
2021/08/30 04:28:34;;;;;;;10.43;7.87;;;;;;;24.24;65.42;99017.42;1731196;81;21510;-68
2021/08/30 04:31:00;;;;;;;8.55;7.83;;;;;;;24.25;65.36;99015.52;1729877;81;21113;-67
2021/08/30 04:33:28;;;;;;;10.63;8.40;;;;;;;24.24;65.25;99017.94;1726150;81;21033;-68
2021/08/30 04:35:55;;;;;;;7.83;6.97;;;;;;;24.25;65.19;99022.30;1727862;80;21034;-70
2021/08/30 04:38:21;;;;;;;8.43;7.37;;;;;;;24.25;65.44;99014.95;1727208;81;21021;-70
2021/08/30 04:40:48;;;;;;;9.08;7.45;;;;;;;24.29;65.28;99011.16;1723076;80;21146;-69
2021/08/30 04:43:15;;;;;;;8.23;7.42;;;;;;;24.31;65.02;99015.20;1722913;81;21061;-70
2021/08/30 04:45:41;;;;;;;10.05;7.00;;;;;;;24.36;65.11;99028.48;1728313;80;21578;-71
2021/08/30 04:48:07;;;;;;;7.30;6.60;;;;;;;24.40;64.78;99035.02;1704840;81;21104;-69
2021/08/30 04:50:35;;;;;;;7.67;6.87;;;;;;;24.43;64.56;99046.66;1727699;81;21076;-71
2021/08/30 04:53:01;;;;;;;9.23;7.45;;;;;;;24.45;64.34;99058.05;1736255;81;22328;-71
2021/08/30 04:55:27;;;;;;;8.10;7.15;;;;;;;24.48;64.08;99066.47;1733144;81;21010;-72
2021/08/30 04:57:54;;;;;;;8.38;7.15;;;;;;;24.49;64.00;99068.11;1732340;80;21830;-70
2021/08/30 05:00:21;;;;;;;10.08;7.10;;;;;;;24.50;64.17;99076.50;1737879;81;21052;-71
2021/08/30 05:02:48;;;;;;;11.48;7.62;;;;;;;24.53;64.39;99079.23;1728162;80;21505;-70
2021/08/30 05:05:23;;;;;;;9.28;7.10;;;;;;;24.55;64.62;99069.45;1726599;80;21140;-72
2021/08/30 05:07:52;;;;;;;9.93;7.62;;;;;;;24.56;64.53;99065.11;1701689;82;21076;-71
2021/08/30 05:10:18;;;;;;;13.70;8.70;;;;;;;24.59;64.67;99048.80;1739212;81;21499;-70
2021/08/30 05:12:45;;;;;;;10.43;7.80;;;;;;;24.59;64.47;99023.84;1745981;80;21006;-70
2021/08/30 05:15:11;;;;;;;11.60;7.72;;;;;;;24.61;64.32;99021.66;1746707;81;21494;-69
2021/08/30 05:17:38;;;;;;;11.25;7.67;;;;;;;24.62;64.26;99029.25;1738465;81;21126;-69
2021/08/30 05:22:52;;;;;;;8.35;7.33;;;;;;;24.68;63.98;99035.73;1853904;75;22468;-70
2021/08/30 05:25:18;;;;;;;8.63;7.72;;;;;;;24.64;63.99;99048.80;1809125;77;21038;-71
2021/08/30 05:27:48;;;;;;;9.25;7.47;;;;;;;24.66;63.87;99054.76;1825555;77;21089;-70
2021/08/30 05:30:13;;;;;;;9.80;8.13;;;;;;;24.67;63.73;99054.48;1815349;77;20948;-71
2021/08/30 05:32:40;;;;;;;8.90;8.00;;;;;;;24.70;63.85;99039.53;1799341;77;21085;-70
2021/08/30 05:35:08;;;;;;;11.83;7.80;;;;;;;24.72;63.73;99024.60;1801691;77;21579;-69
2021/08/30 05:37:34;;;;;;;9.25;7.47;;;;;;;24.73;63.68;99023.50;1795839;77;21025;-68
2021/08/30 05:40:01;;;;;;;9.53;7.80;;;;;;;24.75;63.49;99020.50;1795254;77;22388;-69
2021/08/30 05:42:28;;;;;;;10.15;8.28;;;;;;;24.78;63.45;99017.77;1806708;77;20973;-70
2021/08/30 05:44:55;;;;;;;9.28;8.25;;;;;;;24.79;63.64;99009.91;1809728;77;21036;-72
2021/08/30 05:47:21;;;;;;;11.00;7.60;;;;;;;24.80;63.59;99004.20;1802418;77;21044;-70
2021/08/30 05:49:48;;;;;;;8.85;7.83;;;;;;;24.81;63.67;99005.80;1821533;77;21052;-72
2021/08/30 05:52:14;;;;;;;10.40;8.18;;;;;;;24.82;64.06;98999.30;1804488;77;21513;-64
2021/08/30 05:54:40;;;;;;;11.97;8.85;;;;;;;24.84;64.47;99000.34;1802249;77;21001;-63
2021/08/30 05:57:07;;;;;;;26.27;18.27;;;;;;;24.86;64.90;99009.86;1830184;77;21041;-65
2021/08/30 05:59:36;;;;;;;22.98;17.45;;;;;;;24.96;65.12;99009.55;1815305;77;21014;-66
2021/08/30 06:02:03;;;;;;;25.77;16.65;;;;;;;25.08;65.18;99014.08;1819117;77;21565;-66
2021/08/30 06:04:29;;;;;;;21.12;15.35;;;;;;;25.12;65.56;99021.93;1823085;77;21058;-64
2021/08/30 06:06:55;;;;;;;26.27;15.50;;;;;;;25.16;65.99;99022.98;1816621;77;21045;-65
2021/08/30 06:09:22;;;;;;;20.10;14.63;;;;;;;25.18;66.22;99022.16;1815746;77;21005;-64
2021/08/30 06:11:50;;;;;;;22.00;14.35;;;;;;;25.20;66.30;99012.37;1805448;77;21563;-64
2021/08/30 06:14:17;;;;;;;20.17;13.98;;;;;;;25.26;66.27;99001.75;1800351;77;21068;-66
2021/08/30 06:16:44;;;;;;;23.25;15.55;;;;;;;25.29;66.26;98980.25;1798940;77;21143;-65
2021/08/30 06:19:11;;;;;;;19.48;12.55;;;;;;;25.33;66.20;98974.26;1799181;77;21044;-65
2021/08/30 06:21:38;;;;;;;13.68;11.00;;;;;;;25.36;65.94;98988.63;1806123;77;21040;-65
2021/08/30 06:24:05;;;;;;;13.68;10.15;;;;;;;25.39;65.64;98988.06;1797525;77;21532;-66
2021/08/30 06:26:33;;;;;;;12.75;10.23;;;;;;;25.42;65.23;98991.03;1809304;77;21053;-65
2021/08/30 06:29:00;;;;;;;16.52;10.25;;;;;;;25.43;64.66;98987.20;1803554;78;22323;-69
2021/08/30 06:31:26;;;;;;;13.93;9.83;;;;;;;25.45;64.19;98989.09;1796589;78;21532;-67
2021/08/30 06:33:53;;;;;;;13.00;9.43;;;;;;;25.47;64.02;98968.42;1816550;77;21012;-66
2021/08/30 06:36:19;;;;;;;14.43;10.80;;;;;;;25.49;63.96;98977.09;1815290;77;21002;-63
2021/08/30 06:38:46;;;;;;;12.80;10.53;;;;;;;25.51;63.99;98969.47;1809682;77;21706;-66
2021/08/30 06:41:12;;;;;;;15.13;10.32;;;;;;;25.53;64.05;98975.98;1801964;77;21080;-65
2021/08/30 06:43:38;;;;;;;15.05;11.35;;;;;;;25.55;64.26;98970.52;1806689;77;21247;-65
2021/08/30 06:46:05;;;;;;;21.65;11.10;;;;;;;25.57;64.48;98971.04;1820341;78;21068;-69
2021/08/30 06:48:31;;;;;;;13.48;10.10;;;;;;;25.58;64.71;98982.19;1812476;77;21013;-65
2021/08/30 06:50:57;;;;;;;12.80;9.70;;;;;;;25.61;64.87;98991.16;1813571;77;21105;-66
2021/08/30 06:53:24;;;;;;;13.93;10.78;;;;;;;25.68;64.91;98997.05;1810976;77;21110;-65
2021/08/30 06:55:51;;;;;;;12.13;10.20;;;;;;;25.78;64.01;99000.22;1818720;77;21101;-66
2021/08/30 06:58:17;;;;;;;12.65;10.53;;;;;;;25.80;63.47;98992.58;1817787;77;21065;-63
2021/08/30 07:00:43;;;;;;;14.25;10.13;;;;;;;25.81;63.20;98976.53;1811764;78;21068;-63
2021/08/30 07:03:09;;;;;;;14.55;10.15;;;;;;;25.82;63.04;98971.34;1807838;77;21076;-63
2021/08/30 07:05:37;;;;;;;13.85;10.38;;;;;;;25.85;62.81;98960.45;1812110;77;21139;-64
2021/08/30 07:08:04;;;;;;;16.87;10.40;;;;;;;25.86;62.60;98964.25;1814401;77;21036;-64
2021/08/30 07:10:31;;;;;;;16.17;10.68;;;;;;;25.89;62.52;98962.86;1821187;77;21025;-64
2021/08/30 07:12:57;;;;;;;12.05;10.65;;;;;;;25.90;62.39;98968.55;1815894;77;21012;-63
2021/08/30 07:15:25;;;;;;;18.15;10.48;;;;;;;25.92;62.29;98972.37;1815346;77;21033;-64
2021/08/30 07:17:51;;;;;;;14.38;10.32;;;;;;;25.94;62.15;98974.25;1816971;77;21153;-64
2021/08/30 07:20:18;;;;;;;23.00;12.98;;;;;;;25.95;62.02;98976.70;1800051;77;21065;-64
2021/08/30 07:22:44;;;;;;;16.82;10.98;;;;;;;25.96;61.92;98976.97;1809120;77;21006;-64
2021/08/30 07:25:10;;;;;;;14.80;11.50;;;;;;;25.97;61.82;98973.69;1801256;78;21073;-63
2021/08/30 07:27:37;;;;;;;13.65;11.50;;;;;;;25.98;61.79;98971.22;1795142;77;21571;-64
2021/08/30 07:30:04;;;;;;;20.27;10.98;;;;;;;25.98;61.90;98966.61;1802505;77;21129;-64
2021/08/30 07:32:31;;;;;;;14.13;9.85;;;;;;;25.99;61.93;98968.21;1823791;77;21068;-63
2021/08/30 07:34:57;;;;;;;14.75;10.72;;;;;;;26.00;61.91;98973.93;1820810;77;20986;-63
2021/08/30 07:37:23;;;;;;;12.63;10.03;;;;;;;26.02;61.94;98965.45;1811777;77;21017;-64
2021/08/30 07:39:50;;;;;;;14.95;9.65;;;;;;;26.03;61.96;98966.53;1821989;78;21092;-65
2021/08/30 07:42:16;;;;;;;11.88;9.68;;;;;;;26.03;61.92;98966.53;1816388;77;21167;-65
2021/08/30 07:44:43;;;;;;;10.53;9.40;;;;;;;26.05;61.81;98960.25;1823659;77;21521;-64
2021/08/30 07:47:10;;;;;;;14.30;11.40;;;;;;;26.06;61.75;98955.64;1807154;77;21536;-63
2021/08/30 07:49:36;;;;;;;13.88;10.43;;;;;;;26.06;61.67;98965.16;1827051;77;21018;-63
2021/08/30 07:52:04;;;;;;;13.90;10.82;;;;;;;26.07;61.61;98973.02;1818667;78;21032;-63
2021/08/30 07:54:32;;;;;;;13.08;9.43;;;;;;;26.08;61.48;98965.69;1811513;77;21065;-62
2021/08/30 07:56:58;;;;;;;13.62;9.83;;;;;;;26.09;61.42;98965.92;1822194;78;21097;-63
2021/08/30 07:59:25;;;;;;;11.08;9.90;;;;;;;26.11;61.32;98968.36;1831573;77;21071;-63
2021/08/30 08:01:51;;;;;;;11.83;9.53;;;;;;;26.11;61.23;98970.53;1824639;77;21143;-63
2021/08/30 08:04:18;;;;;;;11.30;10.13;;;;;;;26.13;61.15;98968.33;1824151;77;21068;-63
2021/08/30 08:06:44;;;;;;;14.05;10.80;;;;;;;26.14;61.02;98961.80;1822233;77;21048;-65
2021/08/30 08:09:10;;;;;;;15.50;10.43;;;;;;;26.14;61.01;98977.33;1824030;78;21071;-64
2021/08/30 08:11:37;;;;;;;12.25;9.65;;;;;;;26.15;60.95;98986.53;1820444;77;21017;-63
2021/08/30 08:14:04;;;;;;;11.30;9.78;;;;;;;26.16;60.88;98975.13;1822490;77;21056;-63
2021/08/30 08:16:32;;;;;;;11.40;9.75;;;;;;;26.17;60.85;98976.17;1814365;77;21060;-63
2021/08/30 08:19:00;;;;;;;16.40;9.85;;;;;;;26.19;60.81;98977.25;1817242;78;21003;-63
2021/08/30 08:21:26;;;;;;;14.73;10.25;;;;;;;26.19;60.84;98966.36;1835798;77;21020;-63
2021/08/30 08:23:53;;;;;;;12.45;10.45;;;;;;;26.19;60.85;98952.75;1815917;77;21037;-62
2021/08/30 08:26:19;;;;;;;13.80;10.03;;;;;;;26.20;60.85;98965.27;1819010;78;21025;-64
2021/08/30 08:28:46;;;;;;;11.93;9.45;;;;;;;26.22;60.84;98976.68;1814457;77;21056;-63
2021/08/30 08:31:13;;;;;;;12.10;10.03;;;;;;;26.23;60.77;98991.37;1840547;77;21102;-63
2021/08/30 08:33:39;;;;;;;12.93;10.72;;;;;;;26.24;60.72;98977.20;1821168;77;21056;-63
2021/08/30 08:36:05;;;;;;;11.43;10.20;;;;;;;26.24;60.69;98960.86;1822925;77;21493;-64
2021/08/30 08:38:32;;;;;;;11.10;9.98;;;;;;;26.26;60.62;98951.86;1821331;78;21073;-63
2021/08/30 08:40:58;;;;;;;10.75;9.68;;;;;;;26.27;60.54;98952.13;1809164;77;21084;-63
2021/08/30 08:43:24;;;;;;;11.55;10.32;;;;;;;26.28;60.45;98963.27;1822782;77;22684;-64
2021/08/30 08:45:51;;;;;;;13.98;11.55;;;;;;;26.28;60.35;98955.09;1822232;77;21034;-63
2021/08/30 08:48:20;;;;;;;12.70;10.05;;;;;;;26.31;60.25;98945.53;1822201;77;21580;-65
2021/08/30 08:50:46;;;;;;;11.38;10.23;;;;;;;26.32;60.16;98943.88;1818572;77;21580;-65
2021/08/30 08:53:13;;;;;;;14.13;10.68;;;;;;;26.33;60.09;98942.79;1821907;77;21025;-63
2021/08/30 08:55:40;;;;;;;12.78;10.38;;;;;;;26.35;59.97;98940.58;1819453;77;21134;-65
2021/08/30 08:58:12;;;;;;;12.37;11.08;;;;;;;26.38;59.95;98955.52;1813996;77;21134;-63
2021/08/30 09:00:40;;;;;;;11.80;10.60;;;;;;;26.39;59.89;98959.88;1817936;77;21258;-63
2021/08/30 09:03:19;;;;;;;12.28;10.35;;;;;;;26.41;59.71;98938.61;1815097;77;21566;-64
2021/08/30 09:05:46;;;;;;;11.85;10.65;;;;;;;26.43;59.58;98935.84;1820378;77;21102;-63
2021/08/30 09:08:29;;;;;;;15.60;11.08;;;;;;;26.45;59.44;98944.53;1820851;77;21111;-64
2021/08/30 09:10:56;;;;;;;;;;;;;;;26.47;59.53;98957.30;1813507;77;21013;-62
2021/08/30 09:13:30;;;;;;;10.65;9.55;;;;;;;26.49;59.57;98937.95;1821439;77;20474;-65
2021/08/30 09:16:00;;;;;;;11.90;10.55;;;;;;;26.47;59.62;98940.16;1817763;77;21128;-67
2021/08/30 09:18:29;;;;;;;11.57;10.38;;;;;;;26.49;59.56;98933.30;1802255;77;21065;-66
2021/08/30 09:21:00;;;;;;;11.65;9.90;;;;;;;26.52;59.61;98941.46;1818793;78;21112;-64
2021/08/30 09:23:29;;;;;;;12.03;10.72;;;;;;;26.55;59.47;98924.52;1785998;77;21033;-64
2021/08/30 09:26:00;;;;;;;11.55;10.23;;;;;;;26.58;59.44;98916.30;1822777;77;21512;-63
2021/08/30 09:28:35;;;;;;;13.28;10.80;;;;;;;26.61;59.44;98936.98;1824984;78;21581;-63
2021/08/30 09:31:02;;;;;;;12.55;10.00;;;;;;;26.63;59.41;98936.14;1821405;78;21040;-63
2021/08/30 09:33:29;;;;;;;12.73;10.18;;;;;;;26.66;59.37;98941.02;1820528;77;21908;-64
2021/08/30 09:35:58;;;;;;;10.85;9.65;;;;;;;26.70;59.41;98926.81;1823171;77;21021;-63
2021/08/30 09:38:25;;;;;;;12.63;11.40;;;;;;;26.72;59.33;98919.16;1823467;77;21559;-64
2021/08/30 09:40:51;;;;;;;14.45;11.05;;;;;;;26.74;59.28;98940.09;1819422;77;21606;-64
2021/08/30 09:43:19;;;;;;;11.90;10.30;;;;;;;26.75;59.26;98932.97;1819233;77;21024;-63
2021/08/30 09:45:47;;;;;;;13.78;11.28;;;;;;;26.77;59.14;98917.17;1823706;77;21140;-63
2021/08/30 09:48:24;;;;;;;11.68;10.48;;;;;;;26.80;59.07;98928.02;1821975;77;22141;-63
2021/08/30 09:50:51;;;;;;;11.15;10.15;;;;;;;26.81;58.99;98906.46;1821574;77;21025;-64
2021/08/30 09:53:17;;;;;;;11.97;10.78;;;;;;;26.83;58.95;98916.52;1819780;77;21073;-64
2021/08/30 09:55:44;;;;;;;13.03;10.98;;;;;;;26.84;58.87;98920.87;1811499;78;21055;-62
2021/08/30 09:58:13;;;;;;;12.33;11.00;;;;;;;26.85;58.78;98923.30;1790398;77;21205;-63
2021/08/30 10:00:40;;;;;;;13.15;11.48;;;;;;;26.87;58.73;98908.03;1794040;78;21059;-62
2021/08/30 10:03:07;;;;;;;14.73;11.55;;;;;;;26.88;58.71;98919.97;1828340;77;21031;-62
2021/08/30 10:05:33;;;;;;;12.65;11.30;;;;;;;26.90;58.64;98925.69;1799137;77;21461;-63
2021/08/30 10:08:00;;;;;;;12.55;11.25;;;;;;;26.91;58.61;98935.47;1822924;77;20986;-64
2021/08/30 10:10:27;;;;;;;12.50;10.63;;;;;;;26.92;58.61;98919.39;1819551;77;21088;-63
2021/08/30 10:12:55;;;;;;;12.33;10.70;;;;;;;26.92;58.60;98905.77;1822930;77;21036;-63
2021/08/30 10:15:22;;;;;;;13.05;11.20;;;;;;;26.93;58.66;98918.30;1816794;77;21052;-65
2021/08/30 10:17:50;;;;;;;11.97;10.80;;;;;;;26.94;58.64;98929.44;1820342;77;21056;-65
2021/08/30 10:20:26;;;;;;;11.05;10.05;;;;;;;26.94;58.58;98937.62;1822287;77;21598;-63
2021/08/30 10:23:03;;;;;;;11.90;10.00;;;;;;;26.95;58.54;98947.42;1824485;77;21245;-62
2021/08/30 10:25:33;;;;;;;11.18;10.15;;;;;;;26.95;58.53;98951.52;1831881;77;21068;-64
2021/08/30 10:28:06;;;;;;;11.65;10.45;;;;;;;26.96;58.45;98951.20;1823099;77;21000;-70
2021/08/30 10:30:35;;;;;;;11.80;10.65;;;;;;;26.97;58.42;98950.66;1817346;77;21084;-70
2021/08/30 10:33:04;;;;;;;11.65;10.43;;;;;;;26.97;58.36;98935.11;1819729;78;21048;-70
2021/08/30 10:35:35;;;;;;;11.38;10.18;;;;;;;26.99;58.28;98934.82;1829750;77;21124;-70
2021/08/30 10:38:04;;;;;;;11.63;10.53;;;;;;;27.00;58.21;98930.41;1830712;77;21016;-72
2021/08/30 10:40:35;;;;;;;12.03;10.82;;;;;;;27.04;58.26;98937.45;1828314;78;21043;-69
2021/08/30 10:43:11;;;;;;;12.03;10.75;;;;;;;27.06;58.20;98942.05;1824413;77;20993;-70
2021/08/30 10:45:45;;;;;;;11.40;10.08;;;;;;;27.09;58.16;98936.02;1829313;78;21076;-69
2021/08/30 10:48:15;;;;;;;12.45;11.35;;;;;;;27.11;58.14;98935.73;1819566;77;21947;-70
2021/08/30 10:50:49;;;;;;;11.78;10.58;;;;;;;27.12;58.08;98926.42;1824893;77;21256;-70
2021/08/30 10:53:24;;;;;;;11.33;10.35;;;;;;;27.14;58.12;98938.67;1802116;77;21084;-68
2021/08/30 10:55:55;;;;;;;11.63;10.53;;;;;;;27.16;58.17;98926.91;1809183;78;21056;-69
2021/08/30 10:58:24;;;;;;;12.05;10.85;;;;;;;27.17;58.04;98923.06;1830254;77;20994;-69
2021/08/30 11:00:51;;;;;;;11.80;10.60;;;;;;;27.21;57.81;98919.99;1817044;78;21072;-68
2021/08/30 11:03:31;;;;;;;12.80;10.60;;;;;;;27.22;57.71;98924.35;1830414;77;20997;-69
2021/08/30 11:06:06;;;;;;;11.75;10.48;;;;;;;27.27;57.49;98920.75;1829589;77;21013;-69
2021/08/30 11:08:34;;;;;;;10.78;9.78;;;;;;;27.32;57.39;98925.33;1824982;77;20995;-69
2021/08/30 11:11:22;;;;;;;10.63;9.65;;;;;;;27.36;57.26;98925.78;1820583;77;21053;-69
2021/08/30 11:14:05;;;;;;;11.22;10.18;;;;;;;27.40;57.12;98929.52;1831155;77;21107;-70
2021/08/30 11:16:33;;;;;;;11.73;10.53;;;;;;;27.45;56.94;98919.91;1823093;78;21060;-70
2021/08/30 11:19:07;;;;;;;10.85;9.85;;;;;;;27.50;56.82;98928.53;1829866;76;21033;-70
2021/08/30 11:21:57;;;;;;;10.72;9.73;;;;;;;27.54;56.74;98920.56;1830389;77;21034;-70
2021/08/30 11:24:36;;;;;;;11.43;9.95;;;;;;;27.58;56.57;98921.05;1802144;78;21002;-71
2021/08/30 11:27:17;;;;;;;11.80;10.65;;;;;;;27.63;56.48;98914.12;1818342;78;21145;-70
2021/08/30 11:29:45;;;;;;;11.55;10.35;;;;;;;27.69;56.34;98916.77;1819945;77;21013;-69
2021/08/30 11:32:13;;;;;;;11.18;10.10;;;;;;;27.73;56.19;98906.86;1843052;77;21013;-72
2021/08/30 11:34:40;;;;;;;11.48;10.28;;;;;;;27.77;56.00;98907.87;1827502;78;21097;-70
2021/08/30 11:37:10;;;;;;;11.30;9.93;;;;;;;27.81;55.87;98908.31;1828235;77;21033;-72
2021/08/30 11:39:39;;;;;;;12.28;11.15;;;;;;;27.85;55.82;98924.89;1828412;77;22794;-70